Tema, Ghana
Current Conditions -  °F | °C
As of 6:00 PM on Thursday 30 Oct 2014 (Local Time) from DGAA Reporting Station
Few Clouds Few Clouds  
Wind Chill: 81°   Ceiling: Unl
Heat Index: 87°   Visibility: 6mi
Dew Point: 77°   Wind: 13mph
Humidity: 89%   Direction: 190°S
Pressure: 29.83"   Gusts: NA
Location:  5.64°N, 0.01°E
Report Text: DGAA 301800Z 19011KT 9999 FEW014 FEW030CB 27/25 Q1010 NOSIG
Loading
Personal Weather Stations






























Interactive Weather Map
Tropical Storm Tracking
New forecast layout! Learn more

10-Day Weather Forecast

Advertisements
Track Severe Weather on mobile